Time;durP1;ratioP1;P1;durP2;ratioP2;P2;SDS_P1;SDS_P2;PMS_P1;PMS_P2;Temp;Humidity;BMP_temperature;BMP_pressure;BME280_temperature;BME280_humidity;BME280_pressure;Samples;Min_cycle;Max_cycle;Signal;HPM_P1;HPM_P2
2023/11/30 00:01:28;;;;;;;2.28;1.33;;;20.30;32.20;;;;;;5033597;28;20061;-54
2023/11/30 00:03:54;;;;;;;2.28;1.38;;;20.20;32.10;;;;;;5033548;28;20456;-57
2023/11/30 00:06:20;;;;;;;1.80;1.30;;;20.20;32.00;;;;;;5033388;28;20118;-57
2023/11/30 00:08:45;;;;;;;1.83;1.30;;;20.20;32.70;;;;;;5033811;28;20145;-56
2023/11/30 00:11:12;;;;;;;2.50;1.35;;;20.20;32.10;;;;;;5033427;28;20464;-60
2023/11/30 00:13:38;;;;;;;2.17;1.55;;;20.20;32.10;;;;;;5031314;28;20040;-55
2023/11/30 00:16:04;;;;;;;2.40;1.80;;;20.20;32.10;;;;;;5033322;28;20017;-55
2023/11/30 00:18:30;;;;;;;2.75;1.80;;;20.20;32.70;;;;;;5033142;28;20036;-56
2023/11/30 00:20:56;;;;;;;2.25;1.60;;;20.20;32.10;;;;;;5033085;28;20026;-57
2023/11/30 00:23:22;;;;;;;2.38;1.90;;;20.20;32.10;;;;;;5033132;28;20033;-55
2023/11/30 00:25:47;;;;;;;2.28;1.70;;;20.10;32.00;;;;;;5015706;28;20072;-56
2023/11/30 00:28:13;;;;;;;2.58;1.48;;;20.10;32.00;;;;;;5015613;28;20029;-58
2023/11/30 00:30:40;;;;;;;1.90;1.38;;;20.10;32.00;;;;;;5015112;28;20622;-56
2023/11/30 00:33:06;;;;;;;2.35;1.58;;;20.10;32.00;;;;;;5032668;28;20518;-54
2023/11/30 00:35:32;;;;;;;2.33;1.50;;;20.10;32.00;;;;;;5033248;28;20029;-54
2023/11/30 00:37:58;;;;;;;1.70;1.30;;;20.10;32.00;;;;;;5032905;28;20029;-56
2023/11/30 00:40:24;;;;;;;2.60;1.27;;;20.10;32.00;;;;;;5033451;28;20133;-55
2023/11/30 00:42:50;;;;;;;1.83;1.25;;;20.10;32.00;;;;;;5015072;28;20040;-56
2023/11/30 00:45:15;;;;;;;2.58;1.38;;;20.10;32.00;;;;;;5033440;28;20400;-57
2023/11/30 00:47:41;;;;;;;1.65;1.25;;;20.10;32.00;;;;;;5015195;28;20464;-56
2023/11/30 00:50:09;;;;;;;1.50;1.20;;;20.10;32.00;;;;;;5015923;28;20113;-57
2023/11/30 00:52:34;;;;;;;1.55;1.10;;;20.10;32.00;;;;;;5033513;28;20056;-54
2023/11/30 00:55:00;;;;;;;1.73;1.30;;;20.00;31.90;;;;;;5014560;28;20025;-55
2023/11/30 00:57:26;;;;;;;1.65;1.10;;;20.00;31.90;;;;;;5015487;28;20344;-54
2023/11/30 00:59:52;;;;;;;1.60;1.13;;;20.10;32.00;;;;;;5033129;28;20018;-57
2023/11/30 01:02:18;;;;;;;2.40;1.40;;;20.00;31.90;;;;;;5014883;28;20030;-53
2023/11/30 01:04:44;;;;;;;2.05;1.38;;;20.00;31.90;;;;;;5030498;28;20045;-55
2023/11/30 01:07:10;;;;;;;1.52;1.30;;;20.00;31.90;;;;;;5014545;28;20428;-56
2023/11/30 01:09:38;;;;;;;1.75;1.20;;;20.00;31.90;;;;;;5032347;28;20344;-54
2023/11/30 01:12:06;;;;;;;1.60;0.93;;;20.00;31.90;;;;;;5032888;28;20060;-57
2023/11/30 01:14:32;;;;;;;1.95;1.30;;;20.00;31.90;;;;;;5015211;28;20082;-55
2023/11/30 01:16:58;;;;;;;2.33;1.63;;;20.00;31.90;;;;;;5032662;28;20025;-58
2023/11/30 01:19:24;;;;;;;1.70;1.08;;;20.00;31.90;;;;;;5014691;28;20108;-55
2023/11/30 01:21:49;;;;;;;2.35;1.38;;;20.00;31.90;;;;;;5014375;28;20033;-56
2023/11/30 01:24:15;;;;;;;2.60;1.30;;;20.00;31.90;;;;;;5015043;28;20136;-59
2023/11/30 01:26:42;;;;;;;1.85;1.20;;;20.00;31.90;;;;;;5014221;28;20021;-57
2023/11/30 01:29:08;;;;;;;2.25;1.40;;;19.90;31.90;;;;;;5015288;28;20364;-59
2023/11/30 01:31:34;;;;;;;1.70;1.30;;;19.90;31.90;;;;;;5031612;28;20025;-54
2023/11/30 01:34:00;;;;;;;2.58;1.50;;;19.90;31.90;;;;;;5014888;28;20060;-56
2023/11/30 01:36:25;;;;;;;1.70;1.33;;;19.90;32.00;;;;;;5014092;28;20022;-56
2023/11/30 01:38:51;;;;;;;1.50;1.23;;;19.90;32.00;;;;;;5014454;28;20469;-56
2023/11/30 01:41:17;;;;;;;1.70;1.10;;;19.90;32.00;;;;;;5024997;28;20045;-60
2023/11/30 01:43:43;;;;;;;1.85;1.30;;;19.90;32.00;;;;;;5055898;28;20321;-58
2023/11/30 01:46:09;;;;;;;1.95;1.27;;;19.90;32.00;;;;;;5056147;28;20045;-53
2023/11/30 01:48:36;;;;;;;2.22;1.50;;;19.90;32.00;;;;;;5055531;28;20352;-55
2023/11/30 01:51:05;;;;;;;1.67;1.13;;;19.90;32.00;;;;;;5056062;28;20029;-56
2023/11/30 01:53:31;;;;;;;1.90;1.30;;;19.80;31.90;;;;;;5055974;28;20052;-56
2023/11/30 01:55:57;;;;;;;2.25;1.40;;;19.80;31.90;;;;;;5056538;28;20111;-57
2023/11/30 01:58:23;;;;;;;2.38;1.23;;;19.80;31.90;;;;;;5038636;28;20060;-57
2023/11/30 02:00:50;;;;;;;2.13;1.50;;;19.80;31.90;;;;;;5038343;28;20452;-57
2023/11/30 02:03:16;;;;;;;1.92;1.40;;;19.80;31.90;;;;;;5037881;28;20063;-61
2023/11/30 02:05:43;;;;;;;1.55;1.23;;;19.80;31.90;;;;;;5055951;28;20041;-57
2023/11/30 02:08:09;;;;;;;2.95;1.48;;;19.80;31.90;;;;;;5037461;28;20104;-54
2023/11/30 02:10:35;;;;;;;2.10;1.60;;;19.80;31.90;;;;;;5036664;28;20123;-56
2023/11/30 02:13:00;;;;;;;1.90;1.25;;;19.80;32.60;;;;;;5037540;28;20603;-57
2023/11/30 02:15:26;;;;;;;1.83;1.35;;;19.80;31.90;;;;;;5038747;28;20032;-57
2023/11/30 02:17:52;;;;;;;1.77;1.35;;;19.80;32.00;;;;;;5055718;28;20025;-56
2023/11/30 02:20:18;;;;;;;1.50;1.20;;;19.70;31.90;;;;;;5038424;28;20021;-55
2023/11/30 02:22:45;;;;;;;2.25;1.30;;;19.80;32.00;;;;;;5054973;28;20052;-56
2023/11/30 02:25:11;;;;;;;1.60;1.30;;;19.70;32.00;;;;;;5055005;28;20136;-58
2023/11/30 02:27:36;;;;;;;3.20;1.10;;;19.70;32.00;;;;;;5056009;28;20099;-58
2023/11/30 02:30:02;;;;;;;1.33;1.15;;;19.70;32.00;;;;;;5055340;28;20129;-56
2023/11/30 02:32:28;;;;;;;1.73;1.17;;;19.70;32.00;;;;;;5054986;28;20104;-57
2023/11/30 02:34:54;;;;;;;1.50;1.20;;;19.70;32.00;;;;;;5055099;28;20548;-56
2023/11/30 02:37:20;;;;;;;1.20;1.00;;;19.70;32.00;;;;;;5055784;28;20348;-56
2023/11/30 02:39:46;;;;;;;1.55;1.30;;;19.70;32.00;;;;;;5038744;28;20032;-55
2023/11/30 02:42:12;;;;;;;1.50;1.20;;;19.70;32.00;;;;;;5044954;28;20083;-56
2023/11/30 02:44:38;;;;;;;1.40;0.90;;;19.70;32.00;;;;;;5041716;28;20041;-58
2023/11/30 02:47:04;;;;;;;1.33;1.20;;;19.70;32.00;;;;;;5039118;28;20094;-54
2023/11/30 02:49:29;;;;;;;1.63;1.10;;;19.70;32.00;;;;;;5027259;28;20068;-58
2023/11/30 02:51:56;;;;;;;1.00;0.90;;;19.70;32.00;;;;;;5024230;28;20025;-55
2023/11/30 02:54:22;;;;;;;1.23;1.00;;;19.70;32.10;;;;;;5041846;28;20104;-55
2023/11/30 02:56:48;;;;;;;1.40;1.08;;;19.70;32.10;;;;;;5025004;28;20156;-54
2023/11/30 02:59:14;;;;;;;1.17;1.08;;;19.70;32.10;;;;;;5029432;28;20356;-55
2023/11/30 03:01:47;;;;;;;1.80;1.42;;;19.60;32.10;;;;;;5024288;28;20040;-56
2023/11/30 03:04:13;;;;;;;1.55;1.25;;;19.60;32.10;;;;;;5043196;28;20030;-53
2023/11/30 03:06:42;;;;;;;1.75;1.40;;;19.60;32.10;;;;;;5026293;28;20035;-52
2023/11/30 03:09:09;;;;;;;1.42;1.30;;;19.60;32.10;;;;;;5046230;28;20025;-58
2023/11/30 03:11:35;;;;;;;1.90;1.30;;;19.60;32.10;;;;;;5044101;28;20064;-56
2023/11/30 03:14:01;;;;;;;1.75;1.50;;;19.60;32.20;;;;;;5028635;28;20025;-56
2023/11/30 03:16:27;;;;;;;1.40;1.10;;;19.60;32.20;;;;;;5027011;28;20032;-54
2023/11/30 03:18:54;;;;;;;1.48;1.17;;;19.60;32.20;;;;;;5045556;28;20036;-55
2023/11/30 03:21:21;;;;;;;1.50;1.10;;;19.60;32.20;;;;;;5044649;28;20035;-52
2023/11/30 03:23:49;;;;;;;1.60;1.40;;;19.60;32.20;;;;;;5025979;28;20452;-51
2023/11/30 03:26:16;;;;;;;1.85;1.50;;;19.60;32.20;;;;;;5045493;28;20068;-53
2023/11/30 03:28:42;;;;;;;1.98;1.30;;;19.50;32.20;;;;;;5046569;28;20030;-58
2023/11/30 03:31:08;;;;;;;1.70;1.30;;;19.50;32.20;;;;;;5029956;28;20396;-56
2023/11/30 03:33:34;;;;;;;1.80;1.50;;;19.50;32.20;;;;;;5039226;28;20384;-57
2023/11/30 03:36:00;;;;;;;1.90;1.40;;;19.50;32.20;;;;;;5041820;28;20029;-57
2023/11/30 03:38:26;;;;;;;1.55;1.35;;;19.50;32.30;;;;;;5022371;28;20448;-58
2023/11/30 03:40:52;;;;;;;1.50;1.40;;;19.50;32.30;;;;;;4970001;28;1168987;-57
2023/11/30 03:43:18;;;;;;;2.40;1.67;;;19.50;32.30;;;;;;5041341;28;20033;-58
2023/11/30 03:45:44;;;;;;;2.08;1.50;;;19.50;32.30;;;;;;5049873;28;20477;-58
2023/11/30 03:48:10;;;;;;;1.75;1.33;;;19.50;32.30;;;;;;5042926;28;20059;-55
2023/11/30 03:50:36;;;;;;;2.53;1.65;;;19.50;32.30;;;;;;5042016;28;20025;-59
2023/11/30 03:53:01;;;;;;;2.10;1.48;;;19.50;32.30;;;;;;5044118;28;20025;-57
2023/11/30 03:55:27;;;;;;;1.95;1.67;;;19.50;32.30;;;;;;5044468;28;20021;-57
2023/11/30 03:57:53;;;;;;;2.25;1.60;;;19.40;32.30;;;;;;5041761;28;20024;-57
2023/11/30 04:00:20;;;;;;;1.70;1.42;;;19.50;32.40;;;;;;5044344;28;20035;-57
2023/11/30 04:02:46;;;;;;;2.42;1.38;;;19.40;32.30;;;;;;5045115;28;20035;-58
2023/11/30 04:05:13;;;;;;;1.83;1.33;;;19.40;32.30;;;;;;5041556;28;20040;-58
2023/11/30 04:07:40;;;;;;;2.85;1.60;;;19.40;32.30;;;;;;5021514;28;20074;-57
2023/11/30 04:10:11;;;;;;;2.22;1.70;;;19.40;32.30;;;;;;5029245;28;20033;-56
2023/11/30 04:12:37;;;;;;;2.03;1.65;;;19.40;32.30;;;;;;5040897;28;20119;-57
2023/11/30 04:15:05;;;;;;;1.83;1.45;;;19.40;32.40;;;;;;5025872;28;20117;-54
2023/11/30 04:17:31;;;;;;;1.98;1.50;;;19.40;32.30;;;;;;5020177;28;20025;-58
2023/11/30 04:19:57;;;;;;;1.98;1.58;;;19.40;32.30;;;;;;5025091;28;20460;-60
2023/11/30 04:22:23;;;;;;;2.13;1.67;;;19.40;32.30;;;;;;5045529;28;20063;-57
2023/11/30 04:24:49;;;;;;;2.42;1.88;;;19.40;32.40;;;;;;5042235;28;20037;-58
2023/11/30 04:27:15;;;;;;;1.90;1.67;;;19.40;32.30;;;;;;5042726;28;20029;-57
2023/11/30 04:29:41;;;;;;;2.20;1.60;;;19.40;32.30;;;;;;5044135;28;20150;-55
2023/11/30 04:32:07;;;;;;;1.90;1.77;;;19.40;32.30;;;;;;5024415;28;20037;-55
2023/11/30 04:34:34;;;;;;;1.65;1.20;;;19.40;32.30;;;;;;5043879;28;20028;-55
2023/11/30 04:37:00;;;;;;;2.25;1.50;;;19.40;32.30;;;;;;5026129;28;20071;-56
2023/11/30 04:39:25;;;;;;;1.75;1.55;;;19.40;32.30;;;;;;5047809;28;20036;-56
2023/11/30 04:41:52;;;;;;;1.95;1.38;;;19.40;32.40;;;;;;5033395;28;20048;-55
2023/11/30 04:44:20;;;;;;;1.63;1.45;;;19.40;32.30;;;;;;5036065;28;20067;-57
2023/11/30 04:46:46;;;;;;;2.47;1.52;;;19.30;32.30;;;;;;5035473;28;20029;-57
2023/11/30 04:49:12;;;;;;;2.05;1.67;;;19.40;32.40;;;;;;5036115;28;20111;-57
2023/11/30 04:51:37;;;;;;;1.90;1.50;;;19.30;32.30;;;;;;5035638;28;20064;-56
2023/11/30 04:54:03;;;;;;;2.60;1.70;;;19.30;32.30;;;;;;5054236;28;20420;-53
2023/11/30 04:56:29;;;;;;;2.15;1.20;;;19.30;32.30;;;;;;5035910;28;20124;-54
2023/11/30 04:58:55;;;;;;;3.17;1.42;;;19.30;32.30;;;;;;5053556;28;20364;-55
2023/11/30 05:01:21;;;;;;;2.28;1.58;;;19.30;32.30;;;;;;5053126;28;20114;-55
2023/11/30 05:03:47;;;;;;;2.72;1.67;;;19.30;32.30;;;;;;5035359;28;20086;-57
2023/11/30 05:06:13;;;;;;;2.03;1.30;;;19.30;32.30;;;;;;5053507;28;20037;-54
2023/11/30 05:08:38;;;;;;;2.13;1.48;;;19.30;32.30;;;;;;5053659;28;20480;-56
2023/11/30 05:11:04;;;;;;;1.63;1.40;;;19.30;32.30;;;;;;5053085;28;20024;-55
2023/11/30 05:13:30;;;;;;;2.30;1.50;;;19.30;32.40;;;;;;5035637;28;20163;-52
2023/11/30 05:15:58;;;;;;;1.50;1.30;;;19.30;32.40;;;;;;5053138;28;20475;-56
2023/11/30 05:18:24;;;;;;;2.03;1.55;;;19.30;32.40;;;;;;5053510;28;20034;-57
2023/11/30 05:20:50;;;;;;;1.65;1.15;;;19.30;32.40;;;;;;5052918;28;20017;-54
2023/11/30 05:23:16;;;;;;;2.28;1.30;;;19.30;32.40;;;;;;5052995;28;20021;-53
2023/11/30 05:25:42;;;;;;;1.70;1.25;;;19.30;32.40;;;;;;5053324;28;20044;-56
2023/11/30 05:28:08;;;;;;;2.17;1.65;;;19.20;32.30;;;;;;5053131;28;20029;-56
2023/11/30 05:30:34;;;;;;;1.58;1.30;;;19.30;32.40;;;;;;5052755;28;20091;-56
2023/11/30 05:33:00;;;;;;;1.83;1.50;;;19.30;32.40;;;;;;5052353;28;20433;-58
2023/11/30 05:35:25;;;;;;;1.88;1.50;;;19.30;32.40;;;;;;5053118;28;20020;-56
2023/11/30 05:37:52;;;;;;;1.60;1.40;;;19.30;32.40;;;;;;5035603;28;20083;-54
2023/11/30 05:40:19;;;;;;;1.45;1.30;;;19.20;32.40;;;;;;5052561;28;20064;-58
2023/11/30 05:42:45;;;;;;;1.33;1.20;;;19.20;33.00;;;;;;5039643;28;20032;-52
2023/11/30 05:45:11;;;;;;;1.98;1.40;;;19.20;32.40;;;;;;5041019;28;20060;-55
2023/11/30 05:47:37;;;;;;;2.05;1.58;;;19.20;32.40;;;;;;5041353;28;20424;-53
2023/11/30 05:50:04;;;;;;;1.65;1.40;;;19.20;32.50;;;;;;5042713;28;20387;-56
2023/11/30 05:52:30;;;;;;;1.95;1.50;;;19.20;32.50;;;;;;5038227;28;20091;-59
2023/11/30 05:54:57;;;;;;;1.70;1.38;;;19.20;32.50;;;;;;5048701;28;20051;-51
2023/11/30 05:57:23;;;;;;;1.58;1.38;;;19.20;32.50;;;;;;5040083;28;20036;-55
2023/11/30 05:59:49;;;;;;;1.48;1.33;;;19.20;32.50;;;;;;5042242;28;20096;-54
2023/11/30 06:02:17;;;;;;;1.65;1.42;;;19.20;32.50;;;;;;5040123;28;20144;-55
2023/11/30 06:04:51;;;;;;;2.05;1.50;;;19.20;32.50;;;;;;5043183;28;20043;-58
2023/11/30 06:07:17;;;;;;;1.50;1.30;;;19.20;32.60;;;;;;5042722;28;20017;-51
2023/11/30 06:09:43;;;;;;;1.80;1.30;;;19.10;32.50;;;;;;5041952;28;20029;-55
2023/11/30 06:12:09;;;;;;;1.40;1.08;;;19.20;32.60;;;;;;5044757;28;20036;-56
2023/11/30 06:14:35;;;;;;;2.05;1.35;;;19.10;32.60;;;;;;5041958;28;20022;-56
2023/11/30 06:17:01;;;;;;;2.00;1.23;;;19.20;32.70;;;;;;5038966;28;20026;-56
2023/11/30 06:19:27;;;;;;;1.95;1.58;;;19.20;32.70;;;;;;5040488;28;20091;-54
2023/11/30 06:21:53;;;;;;;2.00;1.48;;;19.20;32.70;;;;;;5026016;28;20449;-56
2023/11/30 06:24:19;;;;;;;1.48;1.20;;;19.20;32.70;;;;;;5041648;28;20025;-56
2023/11/30 06:26:45;;;;;;;1.95;1.40;;;19.20;32.70;;;;;;5025393;28;20064;-56
2023/11/30 06:29:11;;;;;;;1.35;1.25;;;19.10;33.30;;;;;;5024212;28;20021;-57
2023/11/30 06:31:40;;;;;;;1.88;1.45;;;19.10;32.70;;;;;;5045910;28;20025;-57
2023/11/30 06:34:06;;;;;;;2.15;1.65;;;19.10;32.70;;;;;;5045545;28;20036;-57
2023/11/30 06:36:31;;;;;;;1.88;1.40;;;19.10;32.70;;;;;;5045104;28;20029;-56
2023/11/30 06:38:57;;;;;;;1.80;1.55;;;19.10;32.70;;;;;;5046241;28;20507;-56
2023/11/30 06:41:23;;;;;;;2.63;1.52;;;19.10;32.70;;;;;;5045220;28;20129;-56
2023/11/30 06:43:49;;;;;;;2.63;1.70;;;19.10;32.80;;;;;;5043480;28;20459;-57
2023/11/30 06:46:20;;;;;;;1.67;1.38;;;19.10;32.80;;;;;;5043387;28;20028;-55
2023/11/30 06:48:49;;;;;;;2.15;1.45;;;19.10;32.80;;;;;;5053104;28;20029;-56
2023/11/30 06:51:15;;;;;;;1.90;1.42;;;19.00;32.80;;;;;;5022045;28;20036;-51
2023/11/30 06:53:41;;;;;;;2.00;1.60;;;19.00;32.80;;;;;;5048921;28;20020;-54
2023/11/30 06:56:11;;;;;;;1.55;1.42;;;19.00;32.80;;;;;;5053194;28;20033;-58
2023/11/30 06:58:38;;;;;;;1.83;1.35;;;19.00;32.80;;;;;;5046574;28;20025;-55
2023/11/30 07:01:07;;;;;;;2.47;1.90;;;19.00;32.80;;;;;;5038622;28;20041;-55
2023/11/30 07:03:34;;;;;;;2.30;1.90;;;19.00;32.80;;;;;;5031694;28;20025;-54
2023/11/30 07:06:01;;;;;;;1.90;1.70;;;19.00;32.90;;;;;;5029760;28;20041;-56
2023/11/30 07:08:27;;;;;;;1.98;1.45;;;19.00;32.90;;;;;;5039042;28;20040;-53
2023/11/30 07:10:53;;;;;;;3.67;1.60;;;19.00;32.90;;;;;;5039177;28;20155;-58
2023/11/30 07:13:19;;;;;;;2.17;1.80;;;19.00;32.90;;;;;;5052660;28;20112;-55
2023/11/30 07:15:44;;;;;;;1.90;1.50;;;19.00;33.00;;;;;;5048486;28;20025;-51
2023/11/30 07:18:13;;;;;;;2.88;1.90;;;19.00;33.00;;;;;;5045724;28;20033;-57
2023/11/30 07:20:40;;;;;;;2.25;1.83;;;19.00;33.00;;;;;;5035258;28;20029;-58
2023/11/30 07:23:06;;;;;;;2.15;1.77;;;19.00;33.00;;;;;;5036693;28;20026;-57
2023/11/30 07:25:32;;;;;;;3.33;1.73;;;19.00;33.00;;;;;;5046528;28;20056;-54
2023/11/30 07:27:59;;;;;;;1.92;1.70;;;19.00;33.00;;;;;;5057251;28;20029;-59
2023/11/30 07:30:25;;;;;;;2.88;1.50;;;19.00;33.10;;;;;;5042181;28;20029;-59
2023/11/30 07:32:53;;;;;;;2.17;1.50;;;19.00;33.10;;;;;;5020214;28;20091;-56
2023/11/30 07:35:19;;;;;;;2.33;1.52;;;19.00;33.10;;;;;;5036821;28;20033;-58
2023/11/30 07:37:45;;;;;;;2.88;1.80;;;19.00;33.20;;;;;;5034584;28;20060;-57
2023/11/30 07:40:11;;;;;;;2.08;1.65;;;19.00;33.20;;;;;;5040499;28;20053;-55
2023/11/30 07:42:37;;;;;;;1.85;1.58;;;19.00;33.20;;;;;;5036749;28;20041;-57
2023/11/30 07:45:03;;;;;;;2.17;1.65;;;19.00;33.20;;;;;;5036398;28;20044;-54
2023/11/30 07:47:30;;;;;;;2.72;2.03;;;19.00;33.20;;;;;;5018710;28;20041;-58
2023/11/30 07:49:55;;;;;;;2.33;1.70;;;19.00;33.20;;;;;;5036127;28;20037;-61
2023/11/30 07:52:21;;;;;;;2.03;1.80;;;19.00;33.20;;;;;;5036790;28;20138;-56
2023/11/30 07:54:47;;;;;;;3.38;2.20;;;19.00;33.20;;;;;;5018273;28;20029;-54
2023/11/30 07:57:14;;;;;;;2.17;1.85;;;19.00;33.20;;;;;;5035653;28;20025;-52
2023/11/30 07:59:39;;;;;;;1.77;1.52;;;19.00;33.20;;;;;;5035815;28;20096;-54
2023/11/30 08:02:06;;;;;;;3.05;2.08;;;19.00;33.20;;;;;;5036163;28;20104;-58
2023/11/30 08:04:32;;;;;;;3.17;2.00;;;19.00;33.20;;;;;;5035682;28;20365;-54
2023/11/30 08:06:58;;;;;;;2.50;1.90;;;19.00;33.20;;;;;;5034944;28;20022;-58
2023/11/30 08:09:23;;;;;;;3.53;2.13;;;19.00;33.20;;;;;;5035280;28;20026;-57
2023/11/30 08:11:49;;;;;;;4.28;2.10;;;19.00;33.20;;;;;;5036165;28;20082;-58
2023/11/30 08:14:16;;;;;;;2.83;2.20;;;19.00;33.20;;;;;;5018615;28;20053;-55
2023/11/30 08:16:42;;;;;;;2.70;1.90;;;19.00;33.20;;;;;;5035274;28;20043;-53
2023/11/30 08:19:08;;;;;;;2.67;1.92;;;19.00;33.20;;;;;;5034840;28;20092;-53
2023/11/30 08:21:40;;;;;;;3.33;1.90;;;19.00;33.20;;;;;;5035860;28;20021;-55
2023/11/30 08:24:09;;;;;;;2.53;2.00;;;19.00;33.20;;;;;;5035827;28;20032;-53
2023/11/30 08:26:35;;;;;;;2.92;2.22;;;19.00;33.20;;;;;;5035926;28;20039;-55
2023/11/30 08:29:01;;;;;;;2.97;2.20;;;19.00;33.20;;;;;;5035679;28;20373;-53
2023/11/30 08:31:28;;;;;;;2.85;1.88;;;18.90;33.10;;;;;;5035357;28;20053;-57
2023/11/30 08:33:55;;;;;;;3.00;2.40;;;19.00;33.30;;;;;;5034939;28;20048;-58
2023/11/30 08:36:21;;;;;;;2.40;1.70;;;19.00;33.30;;;;;;5034925;28;20116;-59
2023/11/30 08:38:47;;;;;;;2.70;1.98;;;19.00;33.40;;;;;;5017231;28;20029;-59
2023/11/30 08:41:12;;;;;;;2.30;2.10;;;19.00;33.40;;;;;;5034582;28;20044;-57
2023/11/30 08:43:38;;;;;;;2.88;2.10;;;19.00;33.40;;;;;;5035076;28;20559;-59
2023/11/30 08:46:04;;;;;;;2.38;1.80;;;19.00;33.40;;;;;;5035592;28;20071;-56
2023/11/30 08:48:30;;;;;;;2.65;1.80;;;19.00;33.40;;;;;;5034256;28;20045;-58
2023/11/30 08:50:56;;;;;;;2.63;2.20;;;19.00;33.40;;;;;;5035140;28;20029;-57
2023/11/30 08:53:22;;;;;;;2.70;1.40;;;19.00;33.30;;;;;;5035330;28;20439;-55
2023/11/30 08:55:48;;;;;;;2.65;1.70;;;19.10;33.40;;;;;;5033274;28;20082;-58
2023/11/30 08:58:14;;;;;;;2.33;1.80;;;19.20;33.40;;;;;;5034812;28;20102;-56
2023/11/30 09:00:42;;;;;;;2.17;1.80;;;19.20;33.40;;;;;;5017550;28;20380;-59
2023/11/30 09:03:08;;;;;;;2.65;1.92;;;19.20;33.30;;;;;;5035010;28;20033;-55
2023/11/30 09:05:34;;;;;;;2.95;1.88;;;19.30;33.30;;;;;;5034639;28;20044;-57
2023/11/30 09:08:00;;;;;;;2.22;1.90;;;19.40;33.30;;;;;;5033871;28;20029;-60
2023/11/30 09:10:26;;;;;;;3.15;2.10;;;19.40;33.20;;;;;;5017088;28;20022;-57
2023/11/30 09:12:52;;;;;;;2.17;1.60;;;19.50;33.20;;;;;;5033606;28;20033;-58
2023/11/30 09:15:19;;;;;;;2.35;1.80;;;19.60;33.20;;;;;;5033260;28;20021;-57
2023/11/30 09:17:45;;;;;;;2.30;1.80;;;19.70;33.20;;;;;;5033149;28;20049;-54
2023/11/30 09:20:11;;;;;;;2.60;1.80;;;19.70;33.10;;;;;;5016520;28;20446;-58
2023/11/30 09:22:38;;;;;;;2.53;1.60;;;19.80;33.10;;;;;;5033709;28;20121;-57
2023/11/30 09:25:04;;;;;;;2.17;1.58;;;19.80;33.00;;;;;;5033696;28;20043;-54
2023/11/30 09:27:31;;;;;;;2.08;1.80;;;19.90;33.00;;;;;;5031860;28;20068;-59
2023/11/30 09:29:56;;;;;;;1.92;1.63;;;20.00;33.60;;;;;;5034916;28;20052;-57
2023/11/30 09:32:22;;;;;;;1.65;1.50;;;20.00;32.90;;;;;;5033855;28;20061;-55
2023/11/30 09:34:49;;;;;;;1.80;1.63;;;20.10;32.90;;;;;;5034726;28;20156;-57
2023/11/30 09:37:18;;;;;;;2.28;1.70;;;20.20;32.90;;;;;;5034061;28;20030;-58
2023/11/30 09:39:46;;;;;;;2.85;1.73;;;20.20;32.80;;;;;;5016223;28;20479;-57
2023/11/30 09:42:16;;;;;;;1.85;1.70;;;20.30;32.80;;;;;;5000708;28;20357;-57
2023/11/30 09:44:45;;;;;;;2.30;1.73;;;20.30;32.80;;;;;;5035043;28;20042;-59
2023/11/30 09:47:13;;;;;;;2.60;1.83;;;20.30;32.70;;;;;;5034618;28;20056;-53
2023/11/30 09:49:39;;;;;;;2.53;2.03;;;20.40;32.70;;;;;;5017263;28;20449;-56
2023/11/30 09:52:05;;;;;;;2.75;1.95;;;20.50;32.70;;;;;;5017541;28;20033;-57
2023/11/30 09:54:31;;;;;;;3.53;2.10;;;20.50;32.60;;;;;;5034922;28;20098;-59
2023/11/30 09:56:57;;;;;;;2.15;1.85;;;20.60;32.60;;;;;;5034662;28;20034;-57
2023/11/30 09:59:26;;;;;;;2.00;1.58;;;20.60;32.50;;;;;;5034640;28;20447;-58
2023/11/30 10:01:55;;;;;;;2.25;1.80;;;20.60;32.50;;;;;;5034004;28;20391;-59
2023/11/30 10:04:25;;;;;;;2.45;2.10;;;20.70;32.50;;;;;;5037209;28;20030;-55
2023/11/30 10:06:55;;;;;;;2.28;1.92;;;20.70;32.40;;;;;;5038097;28;20353;-55
2023/11/30 10:09:21;;;;;;;2.15;1.95;;;20.70;32.40;;;;;;5019709;28;20029;-57
2023/11/30 10:11:47;;;;;;;2.03;1.83;;;20.70;32.40;;;;;;5038707;28;20106;-54
2023/11/30 10:14:13;;;;;;;2.20;1.80;;;20.80;32.40;;;;;;5038624;28;20523;-60
2023/11/30 10:16:40;;;;;;;2.00;1.80;;;20.80;32.90;;;;;;5037733;28;20479;-57
2023/11/30 10:19:06;;;;;;;3.60;2.30;;;20.80;32.30;;;;;;5037290;28;20040;-56
2023/11/30 10:21:32;;;;;;;2.42;2.05;;;20.80;32.30;;;;;;5038194;28;20056;-58
2023/11/30 10:23:58;;;;;;;2.58;2.38;;;20.80;32.20;;;;;;5020569;28;20029;-58
2023/11/30 10:26:25;;;;;;;3.10;2.60;;;20.80;32.20;;;;;;5037163;28;20353;-60
2023/11/30 10:28:55;;;;;;;3.05;2.53;;;20.80;32.20;;;;;;5036985;28;20017;-58
2023/11/30 10:31:25;;;;;;;3.55;2.70;;;20.80;32.10;;;;;;5036456;28;20025;-57
2023/11/30 10:33:55;;;;;;;3.55;2.63;;;20.80;32.10;;;;;;5036781;28;20425;-58
2023/11/30 10:36:32;;;;;;;4.28;3.08;;;20.80;32.10;;;;;;5036201;28;20034;-54
2023/11/30 10:39:04;;;;;;;3.20;2.85;;;20.80;32.20;;;;;;5036094;28;20467;-56
2023/11/30 10:41:54;;;;;;;3.92;3.20;;;20.80;32.20;;;;;;5046422;28;20052;-55
2023/11/30 10:44:25;;;;;;;4.05;3.22;;;20.70;32.20;;;;;;5023479;28;20032;-61
2023/11/30 10:46:58;;;;;;;3.67;3.10;;;20.70;32.30;;;;;;5021316;28;20032;-59
2023/11/30 10:49:27;;;;;;;4.20;3.50;;;20.70;32.30;;;;;;5036190;28;20033;-59
2023/11/30 10:51:59;;;;;;;4.78;3.35;;;20.70;32.30;;;;;;5020007;28;20449;-60
2023/11/30 10:54:54;;;;;;;3.97;3.55;;;20.70;32.30;;;;;;5042870;28;20021;-60
2023/11/30 10:57:22;;;;;;;4.72;3.60;;;20.70;32.30;;;;;;5033724;28;20033;-59
2023/11/30 10:59:48;;;;;;;4.65;3.60;;;20.70;32.40;;;;;;5030613;28;20448;-56
2023/11/30 11:02:15;;;;;;;5.10;3.78;;;20.60;32.40;;;;;;5036980;28;20022;-60
2023/11/30 11:04:42;;;;;;;4.70;3.88;;;20.60;32.50;;;;;;5029773;28;20039;-61
2023/11/30 11:07:13;;;;;;;4.85;4.07;;;20.60;32.60;;;;;;5040973;28;20528;-56
2023/11/30 11:09:51;;;;;;;4.82;3.70;;;20.60;32.70;;;;;;5051256;28;20021;-53
2023/11/30 11:12:24;;;;;;;3.88;3.47;;;20.60;32.80;;;;;;5049198;28;20101;-56
2023/11/30 11:15:11;;;;;;;4.53;3.70;;;20.60;32.80;;;;;;5042836;28;20097;-60
2023/11/30 11:17:54;;;;;;;4.50;4.10;;;20.60;32.80;;;;;;5039777;28;20042;-59
2023/11/30 11:20:25;;;;;;;4.88;3.95;;;20.60;32.90;;;;;;5028871;28;20048;-55
2023/11/30 11:23:07;;;;;;;5.03;4.20;;;20.60;32.90;;;;;;5036415;28;20035;-58
2023/11/30 11:25:40;;;;;;;5.25;4.60;;;20.60;32.90;;;;;;5038709;28;20095;-57
2023/11/30 11:28:07;;;;;;;6.07;4.65;;;20.60;32.90;;;;;;5036766;28;20032;-58
2023/11/30 11:30:37;;;;;;;5.47;4.63;;;20.50;32.90;;;;;;5041293;28;20448;-58
2023/11/30 11:33:03;;;;;;;6.03;4.82;;;20.60;33.00;;;;;;5038477;28;20128;-59
2023/11/30 11:35:29;;;;;;;6.13;5.10;;;20.60;33.00;;;;;;5047959;28;20021;-61
2023/11/30 11:37:57;;;;;;;8.45;5.28;;;20.50;32.90;;;;;;5029546;28;20029;-59
2023/11/30 11:40:23;;;;;;;6.32;4.85;;;20.50;33.00;;;;;;5044085;28;20036;-58
2023/11/30 11:42:49;;;;;;;6.75;5.07;;;20.50;33.00;;;;;;5036760;28;20025;-61
2023/11/30 11:45:15;;;;;;;6.65;5.10;;;20.50;33.00;;;;;;5022445;28;20051;-58
2023/11/30 11:47:41;;;;;;;6.35;4.88;;;20.50;33.00;;;;;;5044999;28;20021;-55
2023/11/30 11:50:07;;;;;;;6.05;4.95;;;20.50;33.00;;;;;;5047028;28;20388;-54
2023/11/30 11:52:33;;;;;;;5.78;4.82;;;20.50;33.10;;;;;;5036684;28;20029;-59
2023/11/30 11:55:05;;;;;;;6.13;5.28;;;20.40;33.00;;;;;;5046715;28;20036;-58
2023/11/30 11:57:33;;;;;;;6.25;4.80;;;20.40;33.00;;;;;;5045442;28;20025;-58
2023/11/30 12:00:02;;;;;;;6.32;5.25;;;20.40;33.00;;;;;;5051294;28;20076;-56
2023/11/30 12:02:34;;;;;;;7.53;4.90;;;20.40;33.00;;;;;;5050213;28;20099;-55
2023/11/30 12:05:10;;;;;;;6.65;5.20;;;20.40;33.00;;;;;;5045991;28;20049;-57
2023/11/30 12:07:50;;;;;;;7.68;5.75;;;20.40;33.00;;;;;;5040470;28;20025;-61
2023/11/30 12:10:39;;;;;;;5.60;4.85;;;20.40;33.10;;;;;;5013269;28;20053;-59
2023/11/30 12:13:06;;;;;;;5.20;3.75;;;20.40;33.20;;;;;;5027681;28;20438;-57
2023/11/30 12:15:33;;;;;;;5.57;3.28;;;20.40;33.40;;;;;;5014066;28;20021;-56
2023/11/30 12:18:00;;;;;;;4.63;3.38;;;20.50;33.60;;;;;;5023451;28;20389;-59
2023/11/30 12:20:27;;;;;;;5.63;3.63;;;20.50;33.70;;;;;;5026993;28;20029;-55
2023/11/30 12:22:54;;;;;;;5.50;3.85;;;20.60;33.80;;;;;;5022350;28;20025;-59
2023/11/30 12:25:20;;;;;;;4.75;3.80;;;20.60;33.90;;;;;;5020533;28;20034;-58
2023/11/30 12:27:46;;;;;;;4.40;3.60;;;20.70;34.00;;;;;;5030479;28;20079;-58
2023/11/30 12:30:13;;;;;;;5.28;4.03;;;20.90;34.10;;;;;;5032888;28;20392;-59
2023/11/30 12:32:39;;;;;;;6.53;4.60;;;20.90;34.10;;;;;;5035379;28;20025;-56
2023/11/30 12:35:09;;;;;;;5.60;4.22;;;21.00;34.10;;;;;;5035395;28;20068;-58
2023/11/30 12:37:36;;;;;;;4.85;3.90;;;21.00;34.70;;;;;;5015741;28;20022;-58
2023/11/30 12:40:13;;;;;;;5.18;4.10;;;21.10;34.10;;;;;;5015316;28;20045;-60
2023/11/30 12:42:41;;;;;;;4.95;3.58;;;21.10;34.00;;;;;;5017812;28;20037;-54
2023/11/30 12:45:08;;;;;;;5.10;4.03;;;21.20;34.10;;;;;;5041530;28;20499;-59
2023/11/30 12:47:34;;;;;;;5.40;4.03;;;21.20;34.00;;;;;;5055443;28;20037;-61